createdAt,value
2023-09-13T00:01:18.631Z,100707.02
2023-09-13T00:03:45.905Z,100707.67
2023-09-13T00:06:13.282Z,100710.40
2023-09-13T00:08:40.048Z,100714.14
2023-09-13T00:11:07.040Z,100712.84
2023-09-13T00:13:33.905Z,100712.98
2023-09-13T00:16:01.514Z,100711.70
2023-09-13T00:18:28.976Z,100715.72
2023-09-13T00:20:56.170Z,100713.70
2023-09-13T00:23:23.112Z,100713.39
2023-09-13T00:25:50.899Z,100715.15
2023-09-13T00:28:17.887Z,100714.02
2023-09-13T00:30:45.024Z,100716.86
2023-09-13T00:33:12.416Z,100711.27
2023-09-13T00:35:39.215Z,100713.09
2023-09-13T00:38:07.141Z,100717.46
2023-09-13T00:40:33.987Z,100711.79
2023-09-13T00:43:01.198Z,100713.65
2023-09-13T00:45:30.304Z,100712.80
2023-09-13T00:47:57.291Z,100712.46
2023-09-13T00:50:24.578Z,100706.53
2023-09-13T00:52:51.706Z,100708.38
2023-09-13T00:55:18.883Z,100708.34
2023-09-13T00:57:46.103Z,100707.08
2023-09-13T01:00:13.633Z,100708.48
2023-09-13T01:02:40.997Z,100709.84
2023-09-13T01:05:09.481Z,100709.20
2023-09-13T01:07:40.881Z,100710.91
2023-09-13T01:10:10.880Z,100715.45
2023-09-13T01:12:38.393Z,100713.23
2023-09-13T01:15:09.008Z,100714.70
2023-09-13T01:17:45.012Z,100709.73
2023-09-13T01:20:49.826Z,100711.05
2023-09-13T01:23:35.475Z,100711.90
2023-09-13T01:26:26.824Z,100712.58
2023-09-13T01:28:55.733Z,100713.89
2023-09-13T01:31:22.893Z,100712.27
2023-09-13T01:33:50.039Z,100706.38
2023-09-13T01:36:17.067Z,100707.30
2023-09-13T01:38:44.007Z,100705.17
2023-09-13T01:41:18.043Z,100701.95
2023-09-13T01:43:45.285Z,100708.86
2023-09-13T01:46:13.579Z,100710.19
2023-09-13T01:48:41.041Z,100715.48
2023-09-13T01:51:08.644Z,100714.25
2023-09-13T01:53:45.912Z,100715.48
2023-09-13T01:56:13.429Z,100713.01
2023-09-13T01:58:40.368Z,100717.33
2023-09-13T02:01:07.396Z,100715.04
2023-09-13T02:03:34.482Z,100719.04
2023-09-13T02:06:01.255Z,100718.47
2023-09-13T02:08:28.581Z,100721.39
2023-09-13T02:10:55.473Z,100726.77
2023-09-13T02:13:22.386Z,100727.10
2023-09-13T02:15:49.491Z,100731.14
2023-09-13T02:18:17.405Z,100729.17
2023-09-13T02:20:45.102Z,100734.36
2023-09-13T02:23:12.149Z,100737.70
2023-09-13T02:25:40.861Z,100741.54
2023-09-13T02:28:07.869Z,100736.59
2023-09-13T02:30:35.753Z,100740.09
2023-09-13T02:33:03.194Z,100739.35
2023-09-13T02:35:30.998Z,100742.36
2023-09-13T02:37:58.332Z,100736.06
2023-09-13T02:40:25.825Z,100739.41
2023-09-13T02:42:53.055Z,100738.46
2023-09-13T02:45:19.972Z,100737.02
2023-09-13T02:47:47.053Z,100735.16
2023-09-13T02:50:14.011Z,100734.38
2023-09-13T02:52:41.054Z,100737.82
2023-09-13T02:55:08.771Z,100743.13
2023-09-13T02:57:35.763Z,100750.74
2023-09-13T03:00:06.418Z,100754.44
2023-09-13T03:02:36.667Z,100756.42
2023-09-13T03:05:06.304Z,100759.61
2023-09-13T03:07:33.389Z,100760.42
2023-09-13T03:10:00.465Z,100760.73
2023-09-13T03:12:27.772Z,100760.39
2023-09-13T03:14:57.772Z,100761.33
2023-09-13T03:17:25.221Z,100759.61
2023-09-13T03:19:52.485Z,100767.32
2023-09-13T03:22:20.198Z,100769.33
2023-09-13T03:24:47.309Z,100773.29
2023-09-13T03:27:14.636Z,100774.80
2023-09-13T03:29:41.793Z,100773.50
2023-09-13T03:32:09.222Z,100777.27
2023-09-13T03:34:38.785Z,100778.77
2023-09-13T03:37:07.115Z,100776.52
2023-09-13T03:39:35.201Z,100780.13
2023-09-13T03:42:02.258Z,100780.38
2023-09-13T03:44:29.810Z,100773.11
2023-09-13T03:46:56.857Z,100766.66
2023-09-13T03:49:24.014Z,100766.25
2023-09-13T03:51:51.182Z,100757.66
2023-09-13T03:54:18.760Z,100751.05
2023-09-13T03:56:45.812Z,100735.93
2023-09-13T03:59:12.834Z,100717.16
2023-09-13T04:01:40.003Z,100693.80
2023-09-13T04:04:07.957Z,100669.01
2023-09-13T04:06:35.164Z,100643.70
2023-09-13T04:09:02.122Z,100634.51
2023-09-13T04:11:29.643Z,100619.08
2023-09-13T04:13:57.405Z,100609.90
2023-09-13T04:16:24.423Z,100607.00
2023-09-13T04:18:51.610Z,100608.04
2023-09-13T04:21:18.961Z,100606.99
2023-09-13T04:23:46.111Z,100614.35
2023-09-13T04:26:14.078Z,100617.77
2023-09-13T04:28:40.964Z,100620.85
2023-09-13T04:31:08.288Z,100620.42
2023-09-13T04:33:54.573Z,100623.15
2023-09-13T04:36:31.171Z,100624.09
2023-09-13T04:38:58.391Z,100626.37
2023-09-13T04:41:25.431Z,100622.75
2023-09-13T04:43:52.373Z,100622.74
2023-09-13T04:46:20.114Z,100624.40
2023-09-13T04:48:47.323Z,100624.01
2023-09-13T04:51:14.443Z,100623.23
2023-09-13T04:53:41.351Z,100622.25
2023-09-13T04:56:08.838Z,100618.93
2023-09-13T04:58:40.241Z,100619.27
2023-09-13T05:01:07.518Z,100623.27
2023-09-13T05:03:35.472Z,100623.93
2023-09-13T05:06:02.681Z,100624.50
2023-09-13T05:08:29.787Z,100630.70
2023-09-13T05:10:56.651Z,100630.48
2023-09-13T05:13:23.731Z,100632.98
2023-09-13T05:15:50.849Z,100634.04
2023-09-13T05:18:18.477Z,100632.89
2023-09-13T05:20:45.430Z,100638.15
2023-09-13T05:23:12.222Z,100640.11
2023-09-13T05:25:45.866Z,100640.54
2023-09-13T05:28:13.940Z,100644.59
2023-09-13T05:30:41.413Z,100642.83
2023-09-13T05:33:08.892Z,100645.41
2023-09-13T05:35:36.021Z,100646.64
2023-09-13T05:38:02.858Z,100646.12
2023-09-13T05:40:30.875Z,100646.94
2023-09-13T05:42:58.214Z,100651.42
2023-09-13T05:45:25.860Z,100651.81
2023-09-13T05:47:52.958Z,100652.20
2023-09-13T05:50:21.005Z,100652.67
2023-09-13T05:52:48.032Z,100652.77
2023-09-13T05:55:14.942Z,100655.73
2023-09-13T05:57:42.130Z,100653.66
2023-09-13T06:00:09.803Z,100654.98
2023-09-13T06:02:39.467Z,100654.63
2023-09-13T06:05:08.673Z,100653.08
2023-09-13T06:07:38.576Z,100654.77
2023-09-13T06:10:06.085Z,100654.12
2023-09-13T06:12:33.390Z,100649.63
2023-09-13T06:15:00.386Z,100647.23
2023-09-13T06:17:27.627Z,100647.88
2023-09-13T06:19:54.637Z,100645.29
2023-09-13T06:22:22.049Z,100646.91
2023-09-13T06:24:51.104Z,100640.98
2023-09-13T06:27:18.148Z,100644.66
2023-09-13T06:29:45.013Z,100645.06
2023-09-13T06:32:31.701Z,100642.79
2023-09-13T06:35:00.037Z,100643.55
2023-09-13T06:37:28.243Z,100647.54
2023-09-13T06:39:55.613Z,100647.67
2023-09-13T06:42:28.659Z,100655.30
2023-09-13T06:45:14.751Z,100652.80
2023-09-13T06:47:44.009Z,100651.80
2023-09-13T06:50:12.625Z,100656.85
2023-09-13T06:52:54.017Z,100657.38
2023-09-13T06:55:32.179Z,100657.64
2023-09-13T06:58:10.766Z,100656.89
2023-09-13T07:00:57.420Z,100650.71
2023-09-13T07:03:31.151Z,100652.63
2023-09-13T07:06:00.898Z,100652.52
2023-09-13T07:08:28.045Z,100650.93
2023-09-13T07:10:55.003Z,100653.45
2023-09-13T07:13:22.129Z,100654.09
2023-09-13T07:15:49.190Z,100658.23
2023-09-13T07:18:16.287Z,100656.18
2023-09-13T07:20:43.293Z,100654.89
2023-09-13T07:23:10.378Z,100650.61
2023-09-13T07:25:37.421Z,100652.88
2023-09-13T07:28:04.836Z,100649.50
2023-09-13T07:30:31.785Z,100649.19
2023-09-13T07:32:59.190Z,100650.56
2023-09-13T07:35:26.652Z,100647.38
2023-09-13T07:37:54.850Z,100647.41
2023-09-13T07:40:23.062Z,100646.66
2023-09-13T07:42:49.897Z,100649.36
2023-09-13T07:45:16.894Z,100651.54
2023-09-13T07:47:44.421Z,100652.02
2023-09-13T07:50:34.701Z,100653.29
2023-09-13T07:53:05.599Z,100649.93
2023-09-13T07:55:34.067Z,100646.58
2023-09-13T07:58:01.587Z,100640.49
2023-09-13T08:00:28.556Z,100641.88
2023-09-13T08:02:56.262Z,100635.09
2023-09-13T08:05:23.447Z,100631.52
2023-09-13T08:07:50.590Z,100630.20
2023-09-13T08:10:17.651Z,100629.75
2023-09-13T08:12:44.703Z,100627.29
2023-09-13T08:15:11.760Z,100627.06
2023-09-13T08:17:38.943Z,100622.91
2023-09-13T08:20:09.625Z,100624.77
2023-09-13T08:22:39.925Z,100622.52
2023-09-13T08:25:10.772Z,100622.78
2023-09-13T08:27:37.911Z,100621.39
2023-09-13T08:30:05.682Z,100619.13
2023-09-13T08:32:32.617Z,100620.76
2023-09-13T08:34:59.684Z,100613.86
2023-09-13T08:37:28.385Z,100613.48
2023-09-13T08:39:57.690Z,100610.08
2023-09-13T08:42:25.738Z,100610.73
2023-09-13T08:44:53.104Z,100612.50
2023-09-13T08:47:22.861Z,100609.63
2023-09-13T08:49:50.136Z,100608.84
2023-09-13T08:52:17.369Z,100602.94
2023-09-13T08:54:57.304Z,100600.86
2023-09-13T08:57:26.193Z,100602.72
2023-09-13T08:59:54.014Z,100597.00
2023-09-13T09:02:21.793Z,100593.48
2023-09-13T09:04:49.065Z,100591.95
2023-09-13T09:07:18.100Z,100590.98
2023-09-13T09:09:47.834Z,100594.76
2023-09-13T09:12:18.162Z,100593.44
2023-09-13T09:14:47.889Z,100590.21
2023-09-13T09:17:15.519Z,100589.56
2023-09-13T09:19:42.546Z,100590.20
2023-09-13T09:22:09.658Z,100584.58
2023-09-13T09:24:36.674Z,100586.38
2023-09-13T09:27:04.190Z,100580.14
2023-09-13T09:29:42.200Z,100583.02
2023-09-13T09:32:09.674Z,100579.26
2023-09-13T09:34:43.526Z,100575.61
2023-09-13T09:37:11.985Z,100572.19
2023-09-13T09:39:40.782Z,100566.58
2023-09-13T09:42:07.841Z,100568.56
2023-09-13T09:44:34.888Z,100568.22
2023-09-13T09:47:01.980Z,100562.34
2023-09-13T09:49:29.271Z,100565.77
2023-09-13T09:51:56.118Z,100568.36
2023-09-13T09:54:23.272Z,100563.36
2023-09-13T09:56:50.223Z,100570.52
2023-09-13T09:59:17.306Z,100565.16
2023-09-13T10:01:46.334Z,100562.21
2023-09-13T10:04:13.525Z,100562.39
2023-09-13T10:07:00.816Z,100564.14
2023-09-13T10:09:40.336Z,100560.33
2023-09-13T10:12:08.533Z,100563.19
2023-09-13T10:14:36.432Z,100562.27
2023-09-13T10:17:04.249Z,100558.98
2023-09-13T10:19:32.046Z,100561.17
2023-09-13T10:21:59.450Z,100564.02
2023-09-13T10:24:39.140Z,100562.81
2023-09-13T10:27:08.036Z,100561.27
2023-09-13T10:29:56.961Z,100560.48
2023-09-13T10:32:31.256Z,100559.14
2023-09-13T10:34:59.369Z,100553.45
2023-09-13T10:37:26.353Z,100552.13
2023-09-13T10:40:00.283Z,100553.30
2023-09-13T10:42:27.380Z,100551.80
2023-09-13T10:44:54.630Z,100551.58
2023-09-13T10:47:21.996Z,100551.09
2023-09-13T10:49:49.459Z,100552.45
2023-09-13T10:52:16.850Z,100551.91
2023-09-13T10:54:43.999Z,100551.86
2023-09-13T10:57:10.995Z,100552.48
2023-09-13T10:59:38.085Z,100545.45
2023-09-13T11:02:06.262Z,100550.83
2023-09-13T11:04:33.768Z,100545.38
2023-09-13T11:07:01.809Z,100541.52
2023-09-13T11:09:32.578Z,100537.36
2023-09-13T11:12:00.037Z,100538.76
2023-09-13T11:14:29.201Z,100536.08
2023-09-13T11:16:58.294Z,100536.77
2023-09-13T11:19:28.487Z,100533.98
2023-09-13T11:22:00.847Z,100538.42
2023-09-13T11:24:57.142Z,100540.57
2023-09-13T11:27:28.916Z,100538.69
2023-09-13T11:29:58.213Z,100541.44
2023-09-13T11:32:29.472Z,100543.31
2023-09-13T11:34:57.776Z,100541.65
2023-09-13T11:37:25.817Z,100541.30
2023-09-13T11:39:56.315Z,100543.61
2023-09-13T11:42:35.464Z,100542.99
2023-09-13T11:45:26.797Z,100541.36
2023-09-13T11:47:57.229Z,100538.77
2023-09-13T11:50:42.137Z,100536.41
2023-09-13T11:53:21.357Z,100535.09
2023-09-13T11:58:50.965Z,100537.95
2023-09-13T12:01:26.438Z,100535.63
2023-09-13T12:04:35.109Z,100533.96
2023-09-13T12:06:48.547Z,100531.85
2023-09-13T12:09:19.452Z,100526.96
2023-09-13T12:11:52.397Z,100529.89
2023-09-13T12:14:30.776Z,100527.00
2023-09-13T12:17:08.337Z,100522.67
2023-09-13T12:19:37.953Z,100521.14
2023-09-13T12:22:04.945Z,100523.73
2023-09-13T12:24:32.209Z,100522.27
2023-09-13T12:26:59.432Z,100519.38
2023-09-13T12:29:26.635Z,100518.55
2023-09-13T12:31:58.135Z,100513.45
2023-09-13T12:34:25.391Z,100517.87
2023-09-13T12:36:52.953Z,100522.08
2023-09-13T12:39:21.560Z,100524.37
2023-09-13T12:41:48.909Z,100521.77
2023-09-13T12:44:19.037Z,100521.92
2023-09-13T12:46:46.105Z,100521.14
2023-09-13T12:49:13.236Z,100522.06
2023-09-13T12:51:40.884Z,100522.09
2023-09-13T12:54:13.711Z,100520.92
2023-09-13T12:56:40.877Z,100523.19
2023-09-13T12:59:09.476Z,100522.30
2023-09-13T13:01:36.882Z,100526.21
2023-09-13T13:04:11.296Z,100525.71
2023-09-13T13:06:54.695Z,100521.83
2023-09-13T13:09:22.880Z,100520.92
2023-09-13T13:11:50.319Z,100519.70
2023-09-13T13:14:23.887Z,100516.44
2023-09-13T13:16:55.104Z,100516.41
2023-09-13T13:22:11.459Z,100515.16
2023-09-13T13:24:39.725Z,100516.15
2023-09-13T13:27:07.683Z,100513.47
2023-09-13T13:29:35.951Z,100510.91
2023-09-13T13:32:03.739Z,100512.05
2023-09-13T13:34:31.068Z,100510.18
2023-09-13T13:36:58.180Z,100510.36
2023-09-13T13:39:25.371Z,100508.91
2023-09-13T13:41:52.439Z,100513.27
2023-09-13T13:44:19.566Z,100517.44
2023-09-13T13:46:46.858Z,100516.83
2023-09-13T13:49:18.568Z,100515.96
2023-09-13T13:51:47.194Z,100519.74
2023-09-13T13:54:15.225Z,100523.88
2023-09-13T13:56:43.032Z,100523.92
2023-09-13T13:59:11.655Z,100523.67
2023-09-13T14:01:39.081Z,100520.52
2023-09-13T14:04:06.423Z,100525.30
2023-09-13T14:06:33.625Z,100524.92
2023-09-13T14:09:04.277Z,100529.77
2023-09-13T14:11:31.687Z,100528.96
2023-09-13T14:13:58.584Z,100527.67
2023-09-13T14:16:25.594Z,100529.01
2023-09-13T14:18:52.478Z,100529.95
2023-09-13T14:21:19.635Z,100526.77
2023-09-13T14:23:47.134Z,100528.44
2023-09-13T14:26:14.667Z,100530.19
2023-09-13T14:28:41.855Z,100527.77
2023-09-13T14:31:13.679Z,100531.81
2023-09-13T14:33:47.021Z,100533.73
2023-09-13T14:36:15.282Z,100529.20
2023-09-13T14:38:42.378Z,100528.45
2023-09-13T14:41:09.178Z,100528.95
2023-09-13T14:43:37.647Z,100527.77
2023-09-13T14:46:04.968Z,100529.14
2023-09-13T14:48:32.749Z,100526.98
2023-09-13T14:51:00.240Z,100526.80
2023-09-13T14:53:27.342Z,100526.86
2023-09-13T14:55:56.160Z,100528.49
2023-09-13T14:58:23.484Z,100527.68
2023-09-13T15:00:51.221Z,100528.52
2023-09-13T15:03:19.134Z,100524.95
2023-09-13T15:05:46.459Z,100527.85
2023-09-13T15:08:13.453Z,100531.66
2023-09-13T15:10:40.663Z,100531.65
2023-09-13T15:13:07.691Z,100533.95
2023-09-13T15:15:34.692Z,100531.71
2023-09-13T15:18:02.030Z,100534.33
2023-09-13T15:20:29.479Z,100533.76
2023-09-13T15:22:56.405Z,100534.43
2023-09-13T15:25:23.643Z,100535.54
2023-09-13T15:27:50.620Z,100539.86
2023-09-13T15:30:17.676Z,100541.92
2023-09-13T15:32:46.298Z,100542.39
2023-09-13T15:35:14.354Z,100543.27
2023-09-13T15:37:41.984Z,100546.89
2023-09-13T15:40:10.020Z,100551.29
2023-09-13T15:42:37.840Z,100552.42
2023-09-13T15:45:06.296Z,100556.32
2023-09-13T15:47:33.410Z,100560.15
2023-09-13T15:50:03.068Z,100556.95
2023-09-13T15:52:30.501Z,100561.08
2023-09-13T15:54:58.528Z,100561.96
2023-09-13T15:57:25.661Z,100560.69
2023-09-13T15:59:52.730Z,100560.18
2023-09-13T16:02:19.825Z,100561.91
2023-09-13T16:04:47.447Z,100561.67
2023-09-13T16:07:14.167Z,100564.38
2023-09-13T16:09:41.144Z,100566.86
2023-09-13T16:12:08.390Z,100569.05
2023-09-13T16:14:36.444Z,100568.53
2023-09-13T16:17:04.320Z,100569.98
2023-09-13T16:19:31.496Z,100574.80
2023-09-13T16:21:58.407Z,100577.61
2023-09-13T16:24:25.509Z,100578.84
2023-09-13T16:26:52.600Z,100582.50
2023-09-13T16:29:19.717Z,100581.63
2023-09-13T16:31:47.577Z,100583.77
2023-09-13T16:34:15.439Z,100579.20
2023-09-13T16:36:42.699Z,100582.37
2023-09-13T16:39:09.721Z,100582.73
2023-09-13T16:41:39.312Z,100585.55
2023-09-13T16:44:06.298Z,100588.02
2023-09-13T16:46:33.726Z,100591.35
2023-09-13T16:49:01.121Z,100588.77
2023-09-13T16:51:28.929Z,100586.59
2023-09-13T16:53:56.308Z,100586.43
2023-09-13T16:56:23.864Z,100587.14
2023-09-13T16:58:51.191Z,100588.98
2023-09-13T17:01:18.924Z,100589.58
2023-09-13T17:03:46.322Z,100590.24
2023-09-13T17:06:14.289Z,100591.27
2023-09-13T17:08:42.281Z,100593.26
2023-09-13T17:11:13.787Z,100591.80
2023-09-13T17:13:41.291Z,100592.65
2023-09-13T17:16:08.896Z,100595.70
2023-09-13T17:18:36.394Z,100594.53
2023-09-13T17:21:04.390Z,100595.34
2023-09-13T17:23:31.530Z,100596.16
2023-09-13T17:25:58.834Z,100600.14
2023-09-13T17:28:25.940Z,100599.75
2023-09-13T17:30:53.640Z,100598.99
2023-09-13T17:33:20.991Z,100597.88
2023-09-13T17:35:48.461Z,100597.11
2023-09-13T17:38:17.659Z,100600.30
2023-09-13T17:40:46.041Z,100600.24
2023-09-13T17:43:13.415Z,100602.56
2023-09-13T17:45:40.720Z,100606.30
2023-09-13T17:48:08.096Z,100603.79
2023-09-13T17:50:35.686Z,100600.98
2023-09-13T17:53:04.969Z,100596.63
2023-09-13T17:55:32.118Z,100597.09
2023-09-13T17:58:03.465Z,100595.64
2023-09-13T18:00:31.519Z,100595.95
2023-09-13T18:03:00.111Z,100595.23
2023-09-13T18:05:27.930Z,100596.33
2023-09-13T18:07:57.393Z,100598.51
2023-09-13T18:10:25.501Z,100597.27
2023-09-13T18:12:52.657Z,100598.13
2023-09-13T18:15:20.330Z,100596.23
2023-09-13T18:17:55.115Z,100592.08
2023-09-13T18:20:26.225Z,100593.02
2023-09-13T18:22:54.052Z,100590.42
2023-09-13T18:25:21.219Z,100585.19
2023-09-13T18:27:48.894Z,100583.97
2023-09-13T18:30:16.593Z,100583.56
2023-09-13T18:32:43.943Z,100582.91
2023-09-13T18:35:11.298Z,100581.05
2023-09-13T18:37:38.922Z,100581.02
2023-09-13T18:40:06.876Z,100582.04
2023-09-13T18:42:35.478Z,100581.74
2023-09-13T18:45:03.908Z,100593.04
2023-09-13T18:47:32.686Z,100588.83
2023-09-13T18:50:00.355Z,100590.48
2023-09-13T18:52:28.415Z,100587.35
2023-09-13T18:54:55.358Z,100588.01
2023-09-13T18:57:23.062Z,100587.89
2023-09-13T18:59:50.789Z,100588.62
2023-09-13T19:02:18.769Z,100589.17
2023-09-13T19:04:47.290Z,100590.08
2023-09-13T19:07:14.539Z,100591.29
2023-09-13T19:09:41.988Z,100589.16
2023-09-13T19:12:10.784Z,100591.64
2023-09-13T19:14:37.786Z,100589.27
2023-09-13T19:17:04.934Z,100593.35
2023-09-13T19:19:32.974Z,100590.50
2023-09-13T19:22:00.965Z,100594.34
2023-09-13T19:24:38.722Z,100594.63
2023-09-13T19:27:06.969Z,100600.88
2023-09-13T19:29:34.735Z,100605.06
2023-09-13T19:32:01.684Z,100605.71
2023-09-13T19:34:28.826Z,100607.73
2023-09-13T19:36:56.107Z,100611.79
2023-09-13T19:39:23.413Z,100608.83
2023-09-13T19:41:50.975Z,100606.05
2023-09-13T19:44:18.840Z,100604.09
2023-09-13T19:46:46.465Z,100607.51
2023-09-13T19:49:13.816Z,100604.69
2023-09-13T19:51:40.812Z,100604.73
2023-09-13T19:54:08.069Z,100603.20
2023-09-13T19:56:36.752Z,100604.54
2023-09-13T19:59:03.745Z,100607.18
2023-09-13T20:01:30.651Z,100607.77
2023-09-13T20:03:58.120Z,100608.95
2023-09-13T20:06:25.710Z,100615.25
2023-09-13T20:08:52.765Z,100617.55
2023-09-13T20:11:19.951Z,100617.07
2023-09-13T20:13:46.767Z,100616.73
2023-09-13T20:16:13.756Z,100617.36
2023-09-13T20:18:40.874Z,100618.15
2023-09-13T20:21:07.857Z,100618.39
2023-09-13T20:23:34.804Z,100619.17
2023-09-13T20:26:01.864Z,100617.02
2023-09-13T20:28:33.219Z,100615.41
2023-09-13T20:31:00.817Z,100612.19
2023-09-13T20:33:28.492Z,100609.29
2023-09-13T20:35:55.520Z,100609.09
2023-09-13T20:38:22.448Z,100612.32
2023-09-13T20:40:51.361Z,100618.98
2023-09-13T20:43:18.285Z,100621.30
2023-09-13T20:45:46.343Z,100623.80
2023-09-13T20:48:13.494Z,100629.54
2023-09-13T20:50:40.781Z,100631.08
2023-09-13T20:53:07.850Z,100636.63
2023-09-13T20:55:35.428Z,100638.98
2023-09-13T20:58:02.666Z,100639.12
2023-09-13T21:00:30.117Z,100641.49
2023-09-13T21:02:57.311Z,100644.93
2023-09-13T21:05:24.316Z,100647.64
2023-09-13T21:07:51.527Z,100648.30
2023-09-13T21:10:18.683Z,100652.13
2023-09-13T21:12:46.620Z,100650.21
2023-09-13T21:15:13.519Z,100650.10
2023-09-13T21:17:40.587Z,100654.93
2023-09-13T21:20:08.129Z,100652.58
2023-09-13T21:22:35.663Z,100653.55
2023-09-13T21:25:02.994Z,100654.73
2023-09-13T21:27:31.580Z,100654.55
2023-09-13T21:29:58.851Z,100656.64
2023-09-13T21:32:25.923Z,100660.55
2023-09-13T21:35:01.404Z,100664.80
2023-09-13T21:37:32.159Z,100661.63
2023-09-13T21:40:05.802Z,100660.96
2023-09-13T21:42:33.083Z,100656.27
2023-09-13T21:45:00.108Z,100654.52
2023-09-13T21:47:27.229Z,100652.56
2023-09-13T21:49:54.291Z,100657.27
2023-09-13T21:52:21.249Z,100657.14
2023-09-13T21:54:48.933Z,100656.88
2023-09-13T21:57:19.690Z,100655.27
2023-09-13T21:59:46.710Z,100656.10
2023-09-13T22:02:13.982Z,100657.93
2023-09-13T22:04:41.499Z,100659.21
2023-09-13T22:07:08.919Z,100658.19
2023-09-13T22:09:36.842Z,100658.26
2023-09-13T22:12:05.344Z,100659.83
2023-09-13T22:14:32.734Z,100662.92
2023-09-13T22:16:59.812Z,100663.34
2023-09-13T22:19:27.244Z,100661.92
2023-09-13T22:21:55.283Z,100662.88
2023-09-13T22:24:24.544Z,100660.09
2023-09-13T22:26:51.693Z,100658.67
2023-09-13T22:29:18.798Z,100660.84
2023-09-13T22:31:45.826Z,100662.64
2023-09-13T22:34:13.251Z,100662.52
2023-09-13T22:36:40.284Z,100664.98
2023-09-13T22:39:09.322Z,100665.80
2023-09-13T22:41:41.013Z,100665.32
2023-09-13T22:44:08.317Z,100666.94
2023-09-13T22:46:36.683Z,100665.63
2023-09-13T22:49:04.246Z,100664.54
2023-09-13T22:51:31.313Z,100664.80
2023-09-13T22:53:59.129Z,100669.77
2023-09-13T22:56:26.183Z,100671.71
2023-09-13T22:58:53.628Z,100672.39
2023-09-13T23:01:20.809Z,100669.31
2023-09-13T23:03:48.141Z,100669.79
2023-09-13T23:06:15.606Z,100668.11
2023-09-13T23:08:42.613Z,100666.61
2023-09-13T23:11:09.738Z,100670.11
2023-09-13T23:13:36.506Z,100666.05
2023-09-13T23:16:07.897Z,100663.92
2023-09-13T23:18:35.866Z,100665.20
2023-09-13T23:21:03.475Z,100666.25
2023-09-13T23:23:30.895Z,100665.50
2023-09-13T23:26:02.038Z,100670.95
2023-09-13T23:28:29.802Z,100669.27
2023-09-13T23:31:06.928Z,100672.57
2023-09-13T23:33:35.192Z,100672.46
2023-09-13T23:36:06.121Z,100671.88
2023-09-13T23:38:33.064Z,100672.52
2023-09-13T23:41:05.469Z,100669.09
2023-09-13T23:43:33.660Z,100665.48
2023-09-13T23:46:01.469Z,100664.95
2023-09-13T23:48:28.517Z,100665.55
2023-09-13T23:50:55.434Z,100667.58
2023-09-13T23:53:22.894Z,100669.23
2023-09-13T23:55:49.928Z,100670.23
2023-09-13T23:58:17.182Z,100672.55
